createdAt,value
2023-05-14T00:00:02.108Z,94617.00
2023-05-14T00:01:02.128Z,94615.00
2023-05-14T00:02:02.182Z,94617.00
2023-05-14T00:03:02.254Z,94615.00
2023-05-14T00:04:02.297Z,94619.00
2023-05-14T00:05:02.245Z,94617.00
2023-05-14T00:06:02.259Z,94615.00
2023-05-14T00:07:02.262Z,94617.00
2023-05-14T00:08:02.323Z,94617.00
2023-05-14T00:09:02.328Z,94615.00
2023-05-14T00:10:02.319Z,94617.00
2023-05-14T00:11:02.310Z,94617.00
2023-05-14T00:12:02.367Z,94619.00
2023-05-14T00:13:02.435Z,94617.00
2023-05-14T00:14:02.474Z,94615.00
2023-05-14T00:15:02.523Z,94615.00
2023-05-14T00:16:02.564Z,94615.00
2023-05-14T00:17:02.538Z,94611.00
2023-05-14T00:18:02.584Z,94611.00
2023-05-14T00:19:02.659Z,94615.00
2023-05-14T00:20:02.654Z,94613.00
2023-05-14T00:21:02.672Z,94611.00
2023-05-14T00:22:02.718Z,94613.00
2023-05-14T00:23:02.738Z,94613.00
2023-05-14T00:24:02.726Z,94613.00
2023-05-14T00:25:02.781Z,94611.00
2023-05-14T00:26:02.805Z,94611.00
2023-05-14T00:27:02.866Z,94609.00
2023-05-14T00:28:02.897Z,94605.00
2023-05-14T00:29:02.943Z,94607.00
2023-05-14T00:30:03.013Z,94603.00
2023-05-14T00:31:03.041Z,94603.00
2023-05-14T00:32:03.045Z,94603.00
2023-05-14T00:33:03.129Z,94601.00
2023-05-14T00:34:03.186Z,94603.00
2023-05-14T00:35:03.256Z,94595.00
2023-05-14T00:36:03.302Z,94603.00
2023-05-14T00:37:03.365Z,94601.00
2023-05-14T00:38:03.379Z,94599.00
2023-05-14T00:39:03.449Z,94599.00
2023-05-14T00:40:03.485Z,94599.00
2023-05-14T00:41:03.485Z,94599.00
2023-05-14T00:42:03.508Z,94599.00
2023-05-14T00:43:03.527Z,94601.00
2023-05-14T00:44:03.543Z,94601.00
2023-05-14T00:45:03.569Z,94601.00
2023-05-14T00:46:03.604Z,94599.00
2023-05-14T00:47:03.679Z,94601.00
2023-05-14T00:48:03.744Z,94603.00
2023-05-14T00:49:03.652Z,94605.00
2023-05-14T00:50:03.739Z,94603.00
2023-05-14T00:51:03.727Z,94601.00
2023-05-14T00:52:03.734Z,94601.00
2023-05-14T00:53:03.784Z,94599.00
2023-05-14T00:54:03.824Z,94599.00
2023-05-14T00:55:03.854Z,94599.00
2023-05-14T00:56:03.868Z,94605.00
2023-05-14T00:57:03.913Z,94601.00
2023-05-14T00:58:03.934Z,94601.00
2023-05-14T00:59:03.976Z,94603.00
2023-05-14T01:00:04.006Z,94599.00
2023-05-14T01:01:04.118Z,94599.00
2023-05-14T01:02:04.049Z,94599.00
2023-05-14T01:03:04.182Z,94599.00
2023-05-14T01:04:04.151Z,94601.00
2023-05-14T01:05:04.153Z,94599.00
2023-05-14T01:06:04.169Z,94603.00
2023-05-14T01:07:04.219Z,94601.00
2023-05-14T01:08:04.208Z,94601.00
2023-05-14T01:09:04.278Z,94601.00
2023-05-14T01:10:04.300Z,94603.00
2023-05-14T01:11:04.298Z,94597.00
2023-05-14T01:12:04.279Z,94599.00
2023-05-14T01:13:04.303Z,94595.00
2023-05-14T01:14:04.389Z,94597.00
2023-05-14T01:15:04.417Z,94599.00
2023-05-14T01:16:04.467Z,94593.00
2023-05-14T01:17:04.520Z,94595.00
2023-05-14T01:18:04.564Z,94593.00
2023-05-14T01:19:04.564Z,94591.00
2023-05-14T01:20:04.575Z,94593.00
2023-05-14T01:21:04.580Z,94591.00
2023-05-14T01:22:04.602Z,94591.00
2023-05-14T01:23:04.624Z,94591.00
2023-05-14T01:24:04.638Z,94591.00
2023-05-14T01:25:04.626Z,94590.00
2023-05-14T01:26:04.661Z,94591.00
2023-05-14T01:27:04.665Z,94591.00
2023-05-14T01:28:04.670Z,94593.00
2023-05-14T01:29:04.796Z,94593.00
2023-05-14T01:30:04.832Z,94591.00
2023-05-14T01:31:04.866Z,94591.00
2023-05-14T01:32:05.056Z,94591.00
2023-05-14T01:33:04.979Z,94591.00
2023-05-14T01:34:04.958Z,94591.00
2023-05-14T01:35:05.018Z,94591.00
2023-05-14T01:36:05.006Z,94588.00
2023-05-14T01:37:05.029Z,94591.00
2023-05-14T01:38:05.058Z,94595.00
2023-05-14T01:39:05.087Z,94593.00
2023-05-14T01:40:05.099Z,94591.00
2023-05-14T01:41:05.146Z,94593.00
2023-05-14T01:42:05.139Z,94593.00
2023-05-14T01:43:05.260Z,94591.00
2023-05-14T01:44:05.218Z,94593.00
2023-05-14T01:45:05.200Z,94595.00
2023-05-14T01:46:05.275Z,94590.00
2023-05-14T01:47:05.221Z,94591.00
2023-05-14T01:48:05.311Z,94593.00
2023-05-14T01:49:05.248Z,94593.00
2023-05-14T01:50:05.292Z,94591.00
2023-05-14T01:51:05.298Z,94593.00
2023-05-14T01:52:05.337Z,94593.00
2023-05-14T01:53:05.356Z,94591.00
2023-05-14T01:54:05.356Z,94593.00
2023-05-14T01:55:05.384Z,94590.00
2023-05-14T01:56:05.399Z,94590.00
2023-05-14T01:57:05.463Z,94588.00
2023-05-14T01:58:05.502Z,94586.00
2023-05-14T01:59:05.554Z,94586.00
2023-05-14T02:00:05.587Z,94582.00
2023-05-14T02:01:05.626Z,94586.00
2023-05-14T02:02:05.577Z,94584.00
2023-05-14T02:03:05.704Z,94586.00
2023-05-14T02:04:05.689Z,94580.00
2023-05-14T02:05:07.040Z,94578.00
2023-05-14T02:06:05.710Z,94582.00
2023-05-14T02:07:05.748Z,94580.00
2023-05-14T02:08:05.780Z,94578.00
2023-05-14T02:09:05.843Z,94582.00
2023-05-14T02:10:06.416Z,94578.00
2023-05-14T02:11:05.895Z,94580.00
2023-05-14T02:12:05.888Z,94576.00
2023-05-14T02:13:05.913Z,94578.00
2023-05-14T02:14:05.938Z,94576.00
2023-05-14T02:15:05.990Z,94578.00
2023-05-14T02:16:06.057Z,94576.00
2023-05-14T02:17:06.042Z,94574.00
2023-05-14T02:18:06.090Z,94576.00
2023-05-14T02:19:06.134Z,94574.00
2023-05-14T02:20:06.096Z,94574.00
2023-05-14T02:21:06.118Z,94572.00
2023-05-14T02:22:06.077Z,94572.00
2023-05-14T02:23:06.146Z,94570.00
2023-05-14T02:24:06.196Z,94570.00
2023-05-14T02:25:06.232Z,94572.00
2023-05-14T02:26:06.356Z,94572.00
2023-05-14T02:27:06.330Z,94574.00
2023-05-14T02:28:06.305Z,94574.00
2023-05-14T02:29:06.320Z,94570.00
2023-05-14T02:30:06.321Z,94572.00
2023-05-14T02:31:06.394Z,94574.00
2023-05-14T02:32:06.416Z,94570.00
2023-05-14T02:33:06.489Z,94570.00
2023-05-14T02:34:06.429Z,94574.00
2023-05-14T02:35:06.421Z,94568.00
2023-05-14T02:36:06.433Z,94568.00
2023-05-14T02:37:06.462Z,94568.00
2023-05-14T02:38:06.481Z,94568.00
2023-05-14T02:39:06.544Z,94568.00
2023-05-14T02:40:06.569Z,94566.00
2023-05-14T02:41:06.558Z,94564.00
2023-05-14T02:42:06.566Z,94566.00
2023-05-14T02:43:06.616Z,94562.00
2023-05-14T02:44:06.614Z,94564.00
2023-05-14T02:45:06.635Z,94560.00
2023-05-14T02:46:06.632Z,94558.00
2023-05-14T02:47:06.705Z,94558.00
2023-05-14T02:48:06.763Z,94554.00
2023-05-14T02:49:06.706Z,94552.00
2023-05-14T02:50:06.736Z,94552.00
2023-05-14T02:51:06.774Z,94548.00
2023-05-14T02:52:06.784Z,94548.00
2023-05-14T02:53:06.776Z,94548.00
2023-05-14T02:54:06.782Z,94548.00
2023-05-14T02:55:06.840Z,94544.00
2023-05-14T02:56:06.910Z,94544.00
2023-05-14T02:57:06.896Z,94544.00
2023-05-14T02:58:06.894Z,94546.00
2023-05-14T02:59:06.918Z,94546.00
2023-05-14T03:00:07.006Z,94546.00
2023-05-14T03:01:07.129Z,94548.00
2023-05-14T03:02:07.050Z,94552.00
2023-05-14T03:03:07.090Z,94552.00
2023-05-14T03:04:07.066Z,94548.00
2023-05-14T03:05:07.079Z,94550.00
2023-05-14T03:06:07.071Z,94548.00
2023-05-14T03:07:07.090Z,94546.00
2023-05-14T03:08:07.132Z,94548.00
2023-05-14T03:09:07.161Z,94546.00
2023-05-14T03:10:07.221Z,94546.00
2023-05-14T03:11:07.268Z,94550.00
2023-05-14T03:12:07.274Z,94550.00
2023-05-14T03:13:07.332Z,94548.00
2023-05-14T03:14:07.381Z,94548.00
2023-05-14T03:15:07.487Z,94548.00
2023-05-14T03:16:07.452Z,94546.00
2023-05-14T03:17:07.576Z,94544.00
2023-05-14T03:18:07.524Z,94544.00
2023-05-14T03:19:07.599Z,94544.00
2023-05-14T03:20:07.537Z,94548.00
2023-05-14T03:21:07.595Z,94546.00
2023-05-14T03:22:07.613Z,94543.00
2023-05-14T03:23:07.638Z,94543.00
2023-05-14T03:24:07.663Z,94544.00
2023-05-14T03:25:07.697Z,94541.00
2023-05-14T03:26:07.722Z,94541.00
2023-05-14T03:27:07.738Z,94535.00
2023-05-14T03:28:07.806Z,94539.00
2023-05-14T03:29:07.837Z,94537.00
2023-05-14T03:30:07.837Z,94537.00
2023-05-14T03:31:07.913Z,94539.00
2023-05-14T03:32:07.911Z,94539.00
2023-05-14T03:33:07.906Z,94535.00
2023-05-14T03:34:07.912Z,94539.00
2023-05-14T03:35:07.955Z,94539.00
2023-05-14T03:36:07.977Z,94537.00
2023-05-14T03:37:07.985Z,94531.00
2023-05-14T03:38:07.971Z,94535.00
2023-05-14T03:39:07.985Z,94537.00
2023-05-14T03:40:08.049Z,94535.00
2023-05-14T03:41:08.092Z,94537.00
2023-05-14T03:42:08.117Z,94539.00
2023-05-14T03:43:08.138Z,94539.00
2023-05-14T03:44:08.118Z,94541.00
2023-05-14T03:45:08.194Z,94539.00
2023-05-14T03:46:08.207Z,94539.00
2023-05-14T03:47:08.267Z,94539.00
2023-05-14T03:48:08.386Z,94537.00
2023-05-14T03:49:08.338Z,94539.00
2023-05-14T03:50:08.328Z,94535.00
2023-05-14T03:51:08.355Z,94535.00
2023-05-14T03:52:08.347Z,94537.00
2023-05-14T03:53:08.353Z,94539.00
2023-05-14T03:54:08.382Z,94539.00
2023-05-14T03:55:08.385Z,94537.00
2023-05-14T03:56:08.407Z,94541.00
2023-05-14T03:57:08.420Z,94543.00
2023-05-14T03:58:08.436Z,94543.00
2023-05-14T03:59:08.408Z,94543.00
2023-05-14T04:00:08.472Z,94541.00
2023-05-14T04:01:08.447Z,94543.00
2023-05-14T04:02:08.453Z,94543.00
2023-05-14T04:03:08.540Z,94543.00
2023-05-14T04:04:08.588Z,94543.00
2023-05-14T04:05:08.513Z,94548.00
2023-05-14T04:06:08.546Z,94544.00
2023-05-14T04:07:08.547Z,94548.00
2023-05-14T04:08:08.557Z,94544.00
2023-05-14T04:09:08.597Z,94548.00
2023-05-14T04:10:08.616Z,94548.00
2023-05-14T04:11:08.632Z,94544.00
2023-05-14T04:12:08.675Z,94548.00
2023-05-14T04:13:08.704Z,94546.00
2023-05-14T04:14:08.730Z,94544.00
2023-05-14T04:15:08.758Z,94544.00
2023-05-14T04:16:08.782Z,94546.00
2023-05-14T04:17:08.783Z,94541.00
2023-05-14T04:18:08.850Z,94539.00
2023-05-14T04:19:08.847Z,94539.00
2023-05-14T04:20:08.846Z,94537.00
2023-05-14T04:21:08.908Z,94535.00
2023-05-14T04:22:08.904Z,94537.00
2023-05-14T04:23:08.919Z,94535.00
2023-05-14T04:24:08.958Z,94535.00
2023-05-14T04:25:08.970Z,94533.00
2023-05-14T04:26:09.006Z,94533.00
2023-05-14T04:27:09.038Z,94537.00
2023-05-14T04:28:09.001Z,94539.00
2023-05-14T04:29:09.029Z,94537.00
2023-05-14T04:30:09.055Z,94535.00
2023-05-14T04:31:09.084Z,94535.00
2023-05-14T04:32:09.107Z,94537.00
2023-05-14T04:33:09.123Z,94539.00
2023-05-14T04:34:09.089Z,94533.00
2023-05-14T04:35:09.125Z,94537.00
2023-05-14T04:36:09.426Z,94531.00
2023-05-14T04:37:09.120Z,94535.00
2023-05-14T04:38:09.136Z,94535.00
2023-05-14T04:39:09.154Z,94537.00
2023-05-14T04:40:09.158Z,94537.00
2023-05-14T04:41:09.164Z,94537.00
2023-05-14T04:42:09.148Z,94539.00
2023-05-14T04:43:09.200Z,94537.00
2023-05-14T04:44:09.315Z,94537.00
2023-05-14T04:45:09.371Z,94541.00
2023-05-14T04:46:09.500Z,94537.00
2023-05-14T04:47:09.401Z,94535.00
2023-05-14T04:48:09.537Z,94537.00
2023-05-14T04:49:09.456Z,94537.00
2023-05-14T04:50:09.481Z,94537.00
2023-05-14T04:51:09.471Z,94537.00
2023-05-14T04:52:09.527Z,94537.00
2023-05-14T04:53:09.527Z,94539.00
2023-05-14T04:54:09.591Z,94541.00
2023-05-14T04:55:09.582Z,94543.00
2023-05-14T04:56:09.610Z,94541.00
2023-05-14T04:57:09.625Z,94541.00
2023-05-14T04:58:09.653Z,94543.00
2023-05-14T04:59:09.667Z,94541.00
2023-05-14T05:00:09.709Z,94543.00
2023-05-14T05:01:09.755Z,94539.00
2023-05-14T05:02:09.767Z,94535.00
2023-05-14T05:03:09.892Z,94535.00
2023-05-14T05:04:09.894Z,94531.00
2023-05-14T05:05:09.898Z,94533.00
2023-05-14T05:06:09.949Z,94527.00
2023-05-14T05:07:09.999Z,94529.00
2023-05-14T05:08:10.045Z,94529.00
2023-05-14T05:09:10.074Z,94529.00
2023-05-14T05:10:10.090Z,94531.00
2023-05-14T05:11:10.131Z,94529.00
2023-05-14T05:12:10.161Z,94533.00
2023-05-14T05:13:10.164Z,94537.00
2023-05-14T05:14:10.202Z,94537.00
2023-05-14T05:15:10.249Z,94537.00
2023-05-14T05:16:10.326Z,94533.00
2023-05-14T05:17:10.309Z,94537.00
2023-05-14T05:18:10.355Z,94537.00
2023-05-14T05:19:10.440Z,94539.00
2023-05-14T05:20:10.391Z,94541.00
2023-05-14T05:21:10.387Z,94541.00
2023-05-14T05:22:10.512Z,94539.00
2023-05-14T05:23:10.464Z,94537.00
2023-05-14T05:24:10.492Z,94535.00
2023-05-14T05:25:10.568Z,94537.00
2023-05-14T05:26:10.606Z,94537.00
2023-05-14T05:27:10.664Z,94531.00
2023-05-14T05:28:10.748Z,94531.00
2023-05-14T05:29:10.785Z,94533.00
2023-05-14T05:30:10.859Z,94531.00
2023-05-14T05:31:10.944Z,94531.00
2023-05-14T05:32:10.890Z,94533.00
2023-05-14T05:33:10.957Z,94533.00
2023-05-14T05:34:10.945Z,94529.00
2023-05-14T05:35:10.971Z,94533.00
2023-05-14T05:36:11.039Z,94529.00
2023-05-14T05:37:11.089Z,94533.00
2023-05-14T05:38:11.132Z,94535.00
2023-05-14T05:39:11.130Z,94533.00
2023-05-14T05:40:11.251Z,94535.00
2023-05-14T05:41:11.272Z,94533.00
2023-05-14T05:42:11.279Z,94535.00
2023-05-14T05:43:11.271Z,94535.00
2023-05-14T05:44:11.293Z,94539.00
2023-05-14T05:45:11.330Z,94539.00
2023-05-14T05:46:11.469Z,94543.00
2023-05-14T05:47:11.375Z,94543.00
2023-05-14T05:48:11.378Z,94541.00
2023-05-14T05:49:11.377Z,94543.00
2023-05-14T05:50:11.472Z,94544.00
2023-05-14T05:51:11.452Z,94541.00
2023-05-14T05:52:11.503Z,94539.00
2023-05-14T05:53:11.535Z,94537.00
2023-05-14T05:54:11.565Z,94541.00
2023-05-14T05:55:11.628Z,94541.00
2023-05-14T05:56:11.628Z,94535.00
2023-05-14T05:57:11.664Z,94533.00
2023-05-14T05:58:11.686Z,94533.00
2023-05-14T05:59:11.725Z,94535.00
2023-05-14T06:00:11.798Z,94535.00
2023-05-14T06:01:11.887Z,94533.00
2023-05-14T06:02:11.925Z,94537.00
2023-05-14T06:03:11.963Z,94533.00
2023-05-14T06:04:11.934Z,94531.00
2023-05-14T06:05:12.031Z,94531.00
2023-05-14T06:06:12.001Z,94529.00
2023-05-14T06:07:12.009Z,94529.00
2023-05-14T06:08:12.037Z,94531.00
2023-05-14T06:09:12.065Z,94529.00
2023-05-14T06:10:13.005Z,94529.00
2023-05-14T06:11:12.484Z,94527.00
2023-05-14T06:12:12.158Z,94527.00
2023-05-14T06:13:12.221Z,94523.00
2023-05-14T06:14:12.267Z,94525.00
2023-05-14T06:15:12.267Z,94525.00
2023-05-14T06:16:12.313Z,94525.00
2023-05-14T06:17:12.287Z,94523.00
2023-05-14T06:18:12.296Z,94525.00
2023-05-14T06:19:12.429Z,94521.00
2023-05-14T06:20:12.367Z,94525.00
2023-05-14T06:21:12.389Z,94523.00
2023-05-14T06:22:12.410Z,94527.00
2023-05-14T06:23:12.502Z,94523.00
2023-05-14T06:24:12.447Z,94525.00
2023-05-14T06:25:12.496Z,94521.00
2023-05-14T06:26:12.517Z,94523.00
2023-05-14T06:27:12.531Z,94521.00
2023-05-14T06:28:12.572Z,94521.00
2023-05-14T06:29:12.617Z,94519.00
2023-05-14T06:30:12.645Z,94519.00
2023-05-14T06:31:12.626Z,94515.00
2023-05-14T06:32:12.799Z,94519.00
2023-05-14T06:33:12.692Z,94519.00
2023-05-14T06:34:12.761Z,94521.00
2023-05-14T06:35:12.787Z,94517.00
2023-05-14T06:36:12.813Z,94519.00
2023-05-14T06:37:12.837Z,94519.00
2023-05-14T06:38:12.867Z,94517.00
2023-05-14T06:39:12.886Z,94515.00
2023-05-14T06:40:12.959Z,94515.00
2023-05-14T06:41:12.997Z,94513.00
2023-05-14T06:42:12.982Z,94511.00
2023-05-14T06:43:13.053Z,94509.00
2023-05-14T06:44:13.061Z,94505.00
2023-05-14T06:45:13.088Z,94505.00
2023-05-14T06:46:13.127Z,94503.00
2023-05-14T06:47:13.166Z,94503.00
2023-05-14T06:48:13.266Z,94505.00
2023-05-14T06:49:13.365Z,94505.00
2023-05-14T06:50:13.284Z,94507.00
2023-05-14T06:51:13.379Z,94509.00
2023-05-14T06:52:13.331Z,94507.00
2023-05-14T06:53:13.384Z,94509.00
2023-05-14T06:54:13.414Z,94511.00
2023-05-14T06:55:13.410Z,94511.00
2023-05-14T06:56:13.445Z,94513.00
2023-05-14T06:57:13.449Z,94513.00
2023-05-14T06:58:13.484Z,94515.00
2023-05-14T06:59:13.513Z,94511.00
2023-05-14T07:00:13.518Z,94513.00
2023-05-14T07:01:13.593Z,94513.00
2023-05-14T07:02:13.549Z,94513.00
2023-05-14T07:03:13.565Z,94511.00
2023-05-14T07:04:13.635Z,94515.00
2023-05-14T07:05:13.672Z,94513.00
2023-05-14T07:06:13.773Z,94509.00
2023-05-14T07:07:13.732Z,94509.00
2023-05-14T07:08:13.747Z,94507.00
2023-05-14T07:09:13.781Z,94505.00
2023-05-14T07:10:13.857Z,94505.00
2023-05-14T07:11:13.866Z,94503.00
2023-05-14T07:12:13.914Z,94499.00
2023-05-14T07:13:13.967Z,94497.00
2023-05-14T07:14:13.985Z,94497.00
2023-05-14T07:15:14.051Z,94492.00
2023-05-14T07:16:14.089Z,94492.00
2023-05-14T07:17:14.186Z,94490.00
2023-05-14T07:18:14.182Z,94488.00
2023-05-14T07:19:14.300Z,94490.00
2023-05-14T07:20:14.212Z,94494.00
2023-05-14T07:21:14.255Z,94492.00
2023-05-14T07:22:14.260Z,94494.00
2023-05-14T07:23:14.299Z,94492.00
2023-05-14T07:24:14.265Z,94492.00
2023-05-14T07:25:14.296Z,94492.00
2023-05-14T07:26:14.350Z,94490.00
2023-05-14T07:27:14.413Z,94486.00
2023-05-14T07:28:14.989Z,94482.00
2023-05-14T07:29:14.432Z,94482.00
2023-05-14T07:30:14.441Z,94484.00
2023-05-14T07:31:14.467Z,94482.00
2023-05-14T07:32:15.669Z,94482.00
2023-05-14T07:33:14.509Z,94478.00
2023-05-14T07:34:14.515Z,94474.00
2023-05-14T07:35:14.520Z,94476.00
2023-05-14T07:36:14.548Z,94474.00
2023-05-14T07:37:14.529Z,94472.00
2023-05-14T07:38:14.561Z,94472.00
2023-05-14T07:39:14.599Z,94470.00
2023-05-14T07:40:14.620Z,94470.00
2023-05-14T07:41:14.669Z,94466.00
2023-05-14T07:42:24.572Z,94464.00
2023-05-14T07:43:15.710Z,94464.00
2023-05-14T07:44:14.692Z,94464.00
2023-05-14T07:45:14.677Z,94464.00
2023-05-14T07:46:14.668Z,94458.00
2023-05-14T07:47:14.690Z,94458.00
2023-05-14T07:48:14.803Z,94460.00
2023-05-14T07:49:14.656Z,94456.00
2023-05-14T07:50:14.645Z,94458.00
2023-05-14T07:51:14.646Z,94454.00
2023-05-14T07:52:14.626Z,94456.00
2023-05-14T07:53:14.630Z,94454.00
2023-05-14T07:54:14.613Z,94452.00
2023-05-14T07:55:14.603Z,94452.00
2023-05-14T07:56:14.649Z,94448.00
2023-05-14T07:57:14.706Z,94446.00
2023-05-14T07:58:14.711Z,94446.00
2023-05-14T07:59:14.766Z,94441.00
2023-05-14T08:00:14.827Z,94441.00
2023-05-14T08:01:14.874Z,94441.00
2023-05-14T08:02:14.949Z,94435.00
2023-05-14T08:03:15.139Z,94433.00
2023-05-14T08:04:15.027Z,94437.00
2023-05-14T08:05:15.061Z,94433.00
2023-05-14T08:06:15.108Z,94431.00
2023-05-14T08:07:15.187Z,94431.00
2023-05-14T08:08:15.186Z,94425.00
2023-05-14T08:09:15.255Z,94427.00
2023-05-14T08:10:15.329Z,94425.00
2023-05-14T08:11:15.388Z,94423.00
2023-05-14T08:12:15.382Z,94423.00
2023-05-14T08:13:15.473Z,94421.00
2023-05-14T08:14:15.510Z,94421.00
2023-05-14T08:15:15.595Z,94421.00
2023-05-14T08:16:15.647Z,94419.00
2023-05-14T08:17:15.716Z,94413.00
2023-05-14T08:18:15.711Z,94415.00
2023-05-14T08:19:15.804Z,94413.00
2023-05-14T08:20:15.761Z,94413.00
2023-05-14T08:21:15.747Z,94413.00
2023-05-14T08:22:15.755Z,94411.00
2023-05-14T08:23:15.785Z,94415.00
2023-05-14T08:24:15.823Z,94415.00
2023-05-14T08:25:15.872Z,94413.00
2023-05-14T08:26:15.863Z,94413.00
2023-05-14T08:27:15.906Z,94405.00
2023-05-14T08:28:15.922Z,94407.00
2023-05-14T08:29:16.700Z,94405.00
2023-05-14T08:30:16.009Z,94403.00
2023-05-14T08:31:16.067Z,94401.00
2023-05-14T08:32:23.258Z,94399.00
2023-05-14T08:33:17.062Z,94399.00
2023-05-14T08:34:16.020Z,94395.00
2023-05-14T08:35:16.025Z,94397.00
2023-05-14T08:36:16.015Z,94394.00
2023-05-14T08:37:15.987Z,94394.00
2023-05-14T08:38:15.989Z,94392.00
2023-05-14T08:39:15.988Z,94394.00
2023-05-14T08:40:15.960Z,94392.00
2023-05-14T08:41:15.970Z,94392.00
2023-05-14T08:42:15.969Z,94394.00
2023-05-14T08:43:15.953Z,94394.00
2023-05-14T08:44:15.960Z,94388.00
2023-05-14T08:45:15.967Z,94388.00
2023-05-14T08:46:15.996Z,94388.00
2023-05-14T08:47:16.053Z,94388.00
2023-05-14T08:48:16.160Z,94386.00
2023-05-14T08:49:16.137Z,94386.00
2023-05-14T08:50:16.164Z,94386.00
2023-05-14T08:51:16.185Z,94380.00
2023-05-14T08:52:16.233Z,94380.00
2023-05-14T08:53:16.241Z,94380.00
2023-05-14T08:54:16.284Z,94382.00
2023-05-14T08:55:16.349Z,94380.00
2023-05-14T08:56:16.404Z,94380.00
2023-05-14T08:57:16.471Z,94372.00
2023-05-14T08:58:16.483Z,94380.00
2023-05-14T08:59:16.532Z,94380.00
2023-05-14T09:00:16.573Z,94370.00
2023-05-14T09:01:16.648Z,94368.00
2023-05-14T09:02:16.639Z,94368.00
2023-05-14T09:03:16.735Z,94366.00
2023-05-14T09:04:16.736Z,94364.00
2023-05-14T09:05:16.717Z,94362.00
2023-05-14T09:06:16.751Z,94358.00
2023-05-14T09:07:16.820Z,94360.00
2023-05-14T09:08:16.851Z,94358.00
2023-05-14T09:09:16.876Z,94358.00
2023-05-14T09:10:17.516Z,94358.00
2023-05-14T09:11:16.967Z,94360.00
2023-05-14T09:12:16.996Z,94362.00
2023-05-14T09:13:17.020Z,94360.00
2023-05-14T09:14:17.078Z,94356.00
2023-05-14T09:15:17.120Z,94360.00
2023-05-14T09:16:17.211Z,94362.00
2023-05-14T09:17:17.185Z,94362.00
2023-05-14T09:18:17.186Z,94360.00
2023-05-14T09:19:17.265Z,94364.00
2023-05-14T09:20:17.255Z,94360.00
2023-05-14T09:21:17.292Z,94358.00
2023-05-14T09:22:17.326Z,94358.00
2023-05-14T09:23:17.347Z,94358.00
2023-05-14T09:24:17.321Z,94358.00
2023-05-14T09:25:17.320Z,94358.00
2023-05-14T09:26:17.360Z,94356.00
2023-05-14T09:27:17.421Z,94352.00
2023-05-14T09:28:17.532Z,94352.00
2023-05-14T09:29:17.519Z,94350.00
2023-05-14T09:30:17.544Z,94347.00
2023-05-14T09:31:17.609Z,94345.00
2023-05-14T09:32:17.612Z,94339.00
2023-05-14T09:33:17.639Z,94343.00
2023-05-14T09:34:17.705Z,94343.00
2023-05-14T09:35:18.057Z,94337.00
2023-05-14T09:36:17.859Z,94335.00
2023-05-14T09:37:17.855Z,94333.00
2023-05-14T09:38:17.878Z,94335.00
2023-05-14T09:39:17.902Z,94333.00
2023-05-14T09:40:17.933Z,94335.00
2023-05-14T09:41:17.959Z,94331.00
2023-05-14T09:42:18.002Z,94333.00
2023-05-14T09:43:17.997Z,94329.00
2023-05-14T09:44:18.035Z,94327.00
2023-05-14T09:45:18.085Z,94327.00
2023-05-14T09:46:18.067Z,94325.00
2023-05-14T09:47:18.113Z,94323.00
2023-05-14T09:48:18.142Z,94319.00
2023-05-14T09:49:18.133Z,94317.00
2023-05-14T09:50:18.190Z,94313.00
2023-05-14T09:51:18.196Z,94313.00
2023-05-14T09:52:18.249Z,94313.00
2023-05-14T09:53:18.241Z,94309.00
2023-05-14T09:54:18.299Z,94307.00
2023-05-14T09:55:18.373Z,94303.00
2023-05-14T09:56:18.370Z,94305.00
2023-05-14T09:57:18.389Z,94294.00
2023-05-14T09:58:18.405Z,94298.00
2023-05-14T09:59:18.458Z,94298.00
2023-05-14T10:00:18.477Z,94294.00
2023-05-14T10:01:18.541Z,94294.00
2023-05-14T10:02:18.557Z,94298.00
2023-05-14T10:03:20.089Z,94292.00
2023-05-14T10:04:18.680Z,94296.00
2023-05-14T10:05:18.698Z,94294.00
2023-05-14T10:06:18.749Z,94294.00
2023-05-14T10:07:18.780Z,94294.00
2023-05-14T10:08:18.773Z,94290.00
2023-05-14T10:09:18.864Z,94288.00
2023-05-14T10:10:18.885Z,94290.00
2023-05-14T10:11:18.925Z,94288.00
2023-05-14T10:12:18.948Z,94288.00
2023-05-14T10:13:18.948Z,94288.00
2023-05-14T10:14:18.981Z,94282.00
2023-05-14T10:15:18.985Z,94282.00
2023-05-14T10:16:19.071Z,94280.00
2023-05-14T10:17:19.179Z,94286.00
2023-05-14T10:18:19.256Z,94288.00
2023-05-14T10:19:19.200Z,94282.00
2023-05-14T10:20:19.237Z,94280.00
2023-05-14T10:21:19.232Z,94280.00
2023-05-14T10:22:19.241Z,94280.00
2023-05-14T10:23:19.284Z,94278.00
2023-05-14T10:24:19.339Z,94276.00
2023-05-14T10:25:19.410Z,94276.00
2023-05-14T10:26:20.148Z,94276.00
2023-05-14T10:27:19.468Z,94274.00
2023-05-14T10:28:19.464Z,94272.00
2023-05-14T10:29:19.538Z,94270.00
2023-05-14T10:30:19.534Z,94266.00
2023-05-14T10:31:19.590Z,94268.00
2023-05-14T10:32:19.642Z,94268.00
2023-05-14T10:33:19.639Z,94266.00
2023-05-14T10:34:19.702Z,94266.00
2023-05-14T10:35:19.709Z,94266.00
2023-05-14T10:36:19.729Z,94264.00
2023-05-14T10:37:20.553Z,94266.00
2023-05-14T10:38:19.770Z,94264.00
2023-05-14T10:39:19.827Z,94268.00
2023-05-14T10:40:19.861Z,94262.00
2023-05-14T10:41:19.863Z,94262.00
2023-05-14T10:42:19.920Z,94260.00
2023-05-14T10:43:19.936Z,94258.00
2023-05-14T10:44:19.952Z,94262.00
2023-05-14T10:45:19.968Z,94260.00
2023-05-14T10:46:20.067Z,94262.00
2023-05-14T10:47:20.058Z,94258.00
2023-05-14T10:48:20.108Z,94260.00
2023-05-14T10:49:28.246Z,94262.00
2023-05-14T10:50:21.092Z,94260.00
2023-05-14T10:51:20.079Z,94258.00
2023-05-14T10:52:20.069Z,94256.00
2023-05-14T10:53:20.095Z,94258.00
2023-05-14T10:54:20.068Z,94254.00
2023-05-14T10:55:20.041Z,94256.00
2023-05-14T10:56:20.059Z,94254.00
2023-05-14T10:57:20.114Z,94252.00
2023-05-14T10:58:20.043Z,94250.00
2023-05-14T10:59:20.063Z,94248.00
2023-05-14T11:00:20.034Z,94245.00
2023-05-14T11:01:20.052Z,94243.00
2023-05-14T11:02:20.125Z,94241.00
2023-05-14T11:03:20.031Z,94237.00
2023-05-14T11:04:20.025Z,94235.00
2023-05-14T11:05:19.997Z,94229.00
2023-05-14T11:06:20.006Z,94233.00
2023-05-14T11:07:20.027Z,94229.00
2023-05-14T11:08:20.043Z,94227.00
2023-05-14T11:09:20.070Z,94225.00
2023-05-14T11:10:20.153Z,94227.00
2023-05-14T11:11:20.096Z,94219.00
2023-05-14T11:12:20.128Z,94221.00
2023-05-14T11:13:20.148Z,94223.00
2023-05-14T11:14:20.205Z,94223.00
2023-05-14T11:15:20.236Z,94221.00
2023-05-14T11:16:23.740Z,94223.00
2023-05-14T11:17:20.297Z,94227.00
2023-05-14T11:18:20.240Z,94221.00
2023-05-14T11:19:20.261Z,94221.00
2023-05-14T11:20:20.220Z,94217.00
2023-05-14T11:21:20.301Z,94217.00
2023-05-14T11:22:20.219Z,94215.00
2023-05-14T11:23:20.208Z,94211.00
2023-05-14T11:24:20.197Z,94213.00
2023-05-14T11:25:20.224Z,94215.00
2023-05-14T11:26:21.812Z,94211.00
2023-05-14T11:27:20.185Z,94211.00
2023-05-14T11:28:20.178Z,94209.00
2023-05-14T11:29:20.167Z,94209.00
2023-05-14T11:30:20.219Z,94211.00
2023-05-14T11:31:20.200Z,94207.00
2023-05-14T11:32:20.147Z,94207.00
2023-05-14T11:33:20.188Z,94209.00
2023-05-14T11:34:20.167Z,94207.00
2023-05-14T11:35:20.142Z,94203.00
2023-05-14T11:36:20.142Z,94207.00
2023-05-14T11:37:20.135Z,94205.00
2023-05-14T11:38:20.137Z,94205.00
2023-05-14T11:39:20.117Z,94203.00
2023-05-14T11:40:20.082Z,94201.00
2023-05-14T11:41:20.091Z,94205.00
2023-05-14T11:42:20.094Z,94209.00
2023-05-14T11:43:20.089Z,94213.00
2023-05-14T11:44:20.058Z,94211.00